sensor_id;sensor_type;location;lat;lon;timestamp;P1;durP1;ratioP1;P2;durP2;ratioP2
25341;SDS011;13298;48.792;9.154;2023-09-19T00:00:18;2.28;;;0.90;;
25341;SDS011;13298;48.792;9.154;2023-09-19T00:02:46;1.02;;;0.77;;
25341;SDS011;13298;48.792;9.154;2023-09-19T00:05:18;1.17;;;0.75;;
25341;SDS011;13298;48.792;9.154;2023-09-19T00:07:44;2.13;;;1.00;;
25341;SDS011;13298;48.792;9.154;2023-09-19T00:10:09;1.83;;;0.85;;
25341;SDS011;13298;48.792;9.154;2023-09-19T00:12:35;1.85;;;0.80;;
25341;SDS011;13298;48.792;9.154;2023-09-19T00:15:01;2.38;;;1.10;;
25341;SDS011;13298;48.792;9.154;2023-09-19T00:17:30;3.58;;;0.90;;
25341;SDS011;13298;48.792;9.154;2023-09-19T00:19:56;1.88;;;0.95;;
25341;SDS011;13298;48.792;9.154;2023-09-19T00:22:22;3.20;;;0.70;;
25341;SDS011;13298;48.792;9.154;2023-09-19T00:24:51;2.28;;;0.90;;
25341;SDS011;13298;48.792;9.154;2023-09-19T00:27:17;0.95;;;0.70;;
25341;SDS011;13298;48.792;9.154;2023-09-19T00:29:43;1.88;;;0.73;;
25341;SDS011;13298;48.792;9.154;2023-09-19T00:32:09;1.30;;;0.70;;
25341;SDS011;13298;48.792;9.154;2023-09-19T00:34:35;2.33;;;0.90;;
25341;SDS011;13298;48.792;9.154;2023-09-19T00:37:00;1.35;;;0.90;;
25341;SDS011;13298;48.792;9.154;2023-09-19T00:39:26;1.73;;;1.00;;
25341;SDS011;13298;48.792;9.154;2023-09-19T00:41:56;6.57;;;1.00;;
25341;SDS011;13298;48.792;9.154;2023-09-19T00:44:22;1.33;;;0.80;;
25341;SDS011;13298;48.792;9.154;2023-09-19T00:46:48;2.22;;;1.08;;
25341;SDS011;13298;48.792;9.154;2023-09-19T00:49:15;2.33;;;0.80;;
25341;SDS011;13298;48.792;9.154;2023-09-19T00:51:41;1.13;;;0.85;;
25341;SDS011;13298;48.792;9.154;2023-09-19T00:54:11;1.90;;;0.75;;
25341;SDS011;13298;48.792;9.154;2023-09-19T00:56:43;1.08;;;0.80;;
25341;SDS011;13298;48.792;9.154;2023-09-19T00:59:10;1.15;;;0.80;;
25341;SDS011;13298;48.792;9.154;2023-09-19T01:01:36;2.42;;;0.80;;
25341;SDS011;13298;48.792;9.154;2023-09-19T01:04:05;2.38;;;0.85;;
25341;SDS011;13298;48.792;9.154;2023-09-19T01:06:31;1.52;;;0.88;;
25341;SDS011;13298;48.792;9.154;2023-09-19T01:08:57;1.60;;;0.68;;
25341;SDS011;13298;48.792;9.154;2023-09-19T01:11:32;1.65;;;0.70;;
25341;SDS011;13298;48.792;9.154;2023-09-19T01:17:09;1.38;;;0.70;;
25341;SDS011;13298;48.792;9.154;2023-09-19T01:29:13;2.83;;;0.65;;
25341;SDS011;13298;48.792;9.154;2023-09-19T01:32:22;1.55;;;0.80;;
25341;SDS011;13298;48.792;9.154;2023-09-19T01:37:28;1.48;;;0.50;;
25341;SDS011;13298;48.792;9.154;2023-09-19T01:40:13;2.35;;;0.90;;
25341;SDS011;13298;48.792;9.154;2023-09-19T01:48:35;2.63;;;1.08;;
25341;SDS011;13298;48.792;9.154;2023-09-19T01:51:09;1.35;;;0.75;;
25341;SDS011;13298;48.792;9.154;2023-09-19T01:53:41;1.73;;;0.60;;
25341;SDS011;13298;48.792;9.154;2023-09-19T01:56:25;1.73;;;0.75;;
25341;SDS011;13298;48.792;9.154;2023-09-19T01:59:24;1.05;;;0.60;;
25341;SDS011;13298;48.792;9.154;2023-09-19T02:01:56;2.08;;;0.88;;
25341;SDS011;13298;48.792;9.154;2023-09-19T02:04:23;1.85;;;0.70;;
25341;SDS011;13298;48.792;9.154;2023-09-19T02:06:48;1.05;;;0.70;;
25341;SDS011;13298;48.792;9.154;2023-09-19T02:09:14;1.73;;;1.00;;
25341;SDS011;13298;48.792;9.154;2023-09-19T02:11:40;1.55;;;0.68;;
25341;SDS011;13298;48.792;9.154;2023-09-19T02:14:06;1.02;;;0.50;;
25341;SDS011;13298;48.792;9.154;2023-09-19T02:16:33;1.05;;;0.70;;
25341;SDS011;13298;48.792;9.154;2023-09-19T02:19:02;0.73;;;0.55;;
25341;SDS011;13298;48.792;9.154;2023-09-19T02:21:30;1.52;;;0.57;;
25341;SDS011;13298;48.792;9.154;2023-09-19T02:23:57;1.23;;;0.70;;
25341;SDS011;13298;48.792;9.154;2023-09-19T02:26:23;3.05;;;0.80;;
25341;SDS011;13298;48.792;9.154;2023-09-19T02:28:49;1.50;;;0.60;;
25341;SDS011;13298;48.792;9.154;2023-09-19T02:31:15;1.35;;;0.88;;
25341;SDS011;13298;48.792;9.154;2023-09-19T02:33:41;2.35;;;0.80;;
25341;SDS011;13298;48.792;9.154;2023-09-19T02:36:08;3.53;;;0.73;;
25341;SDS011;13298;48.792;9.154;2023-09-19T02:38:34;1.70;;;0.77;;
25341;SDS011;13298;48.792;9.154;2023-09-19T02:41:00;2.88;;;0.80;;
25341;SDS011;13298;48.792;9.154;2023-09-19T02:43:26;0.85;;;0.60;;
25341;SDS011;13298;48.792;9.154;2023-09-19T02:45:52;0.82;;;0.70;;
25341;SDS011;13298;48.792;9.154;2023-09-19T02:48:19;4.32;;;0.70;;
25341;SDS011;13298;48.792;9.154;2023-09-19T02:50:45;0.80;;;0.70;;
25341;SDS011;13298;48.792;9.154;2023-09-19T02:53:14;1.40;;;0.80;;
25341;SDS011;13298;48.792;9.154;2023-09-19T02:55:40;1.42;;;0.85;;
25341;SDS011;13298;48.792;9.154;2023-09-19T02:58:06;0.75;;;0.60;;
25341;SDS011;13298;48.792;9.154;2023-09-19T03:00:39;2.33;;;0.90;;
25341;SDS011;13298;48.792;9.154;2023-09-19T03:03:07;1.73;;;0.85;;
25341;SDS011;13298;48.792;9.154;2023-09-19T03:05:33;2.13;;;1.15;;
25341;SDS011;13298;48.792;9.154;2023-09-19T03:07:59;1.58;;;0.90;;
25341;SDS011;13298;48.792;9.154;2023-09-19T03:10:26;1.60;;;0.73;;
25341;SDS011;13298;48.792;9.154;2023-09-19T03:12:53;1.02;;;0.70;;
25341;SDS011;13298;48.792;9.154;2023-09-19T03:15:19;0.88;;;0.60;;
25341;SDS011;13298;48.792;9.154;2023-09-19T03:17:45;1.58;;;0.70;;
25341;SDS011;13298;48.792;9.154;2023-09-19T03:20:12;1.33;;;0.55;;
25341;SDS011;13298;48.792;9.154;2023-09-19T03:22:41;1.33;;;0.70;;
25341;SDS011;13298;48.792;9.154;2023-09-19T03:25:07;3.78;;;0.60;;
25341;SDS011;13298;48.792;9.154;2023-09-19T03:27:36;1.70;;;0.93;;
25341;SDS011;13298;48.792;9.154;2023-09-19T03:30:05;0.50;;;0.50;;
25341;SDS011;13298;48.792;9.154;2023-09-19T03:32:36;2.45;;;0.80;;
25341;SDS011;13298;48.792;9.154;2023-09-19T03:35:02;2.03;;;0.80;;
25341;SDS011;13298;48.792;9.154;2023-09-19T03:37:30;1.58;;;0.70;;
25341;SDS011;13298;48.792;9.154;2023-09-19T03:39:57;3.22;;;0.75;;
25341;SDS011;13298;48.792;9.154;2023-09-19T03:42:23;1.17;;;0.80;;
25341;SDS011;13298;48.792;9.154;2023-09-19T03:44:51;1.17;;;0.75;;
25341;SDS011;13298;48.792;9.154;2023-09-19T03:47:17;1.85;;;0.80;;
25341;SDS011;13298;48.792;9.154;2023-09-19T03:49:46;2.75;;;0.60;;
25341;SDS011;13298;48.792;9.154;2023-09-19T03:52:12;1.38;;;0.70;;
25341;SDS011;13298;48.792;9.154;2023-09-19T03:54:38;4.13;;;0.82;;
25341;SDS011;13298;48.792;9.154;2023-09-19T03:57:06;0.98;;;0.68;;
25341;SDS011;13298;48.792;9.154;2023-09-19T03:59:32;1.33;;;0.80;;
25341;SDS011;13298;48.792;9.154;2023-09-19T04:01:57;1.08;;;0.80;;
25341;SDS011;13298;48.792;9.154;2023-09-19T04:04:24;1.33;;;0.90;;
25341;SDS011;13298;48.792;9.154;2023-09-19T04:06:50;1.90;;;0.90;;
25341;SDS011;13298;48.792;9.154;2023-09-19T04:09:16;0.88;;;0.55;;
25341;SDS011;13298;48.792;9.154;2023-09-19T04:11:42;1.77;;;0.70;;
25341;SDS011;13298;48.792;9.154;2023-09-19T04:14:07;1.08;;;0.70;;
25341;SDS011;13298;48.792;9.154;2023-09-19T04:16:33;3.95;;;0.80;;
25341;SDS011;13298;48.792;9.154;2023-09-19T04:18:59;2.17;;;0.80;;
25341;SDS011;13298;48.792;9.154;2023-09-19T04:21:25;1.90;;;0.90;;
25341;SDS011;13298;48.792;9.154;2023-09-19T04:23:51;1.27;;;0.80;;
25341;SDS011;13298;48.792;9.154;2023-09-19T04:26:17;1.38;;;0.73;;
25341;SDS011;13298;48.792;9.154;2023-09-19T04:28:43;1.55;;;0.90;;
25341;SDS011;13298;48.792;9.154;2023-09-19T04:31:09;0.95;;;0.80;;
25341;SDS011;13298;48.792;9.154;2023-09-19T04:33:36;0.88;;;0.80;;
25341;SDS011;13298;48.792;9.154;2023-09-19T04:36:02;2.28;;;0.82;;
25341;SDS011;13298;48.792;9.154;2023-09-19T04:38:30;0.88;;;0.65;;
25341;SDS011;13298;48.792;9.154;2023-09-19T04:40:59;0.85;;;0.70;;
25341;SDS011;13298;48.792;9.154;2023-09-19T04:43:25;1.00;;;0.80;;
25341;SDS011;13298;48.792;9.154;2023-09-19T04:45:51;1.33;;;0.80;;
25341;SDS011;13298;48.792;9.154;2023-09-19T04:48:21;1.70;;;0.93;;
25341;SDS011;13298;48.792;9.154;2023-09-19T04:50:49;0.98;;;0.70;;
25341;SDS011;13298;48.792;9.154;2023-09-19T04:53:16;1.88;;;0.80;;
25341;SDS011;13298;48.792;9.154;2023-09-19T04:55:43;2.80;;;0.80;;
25341;SDS011;13298;48.792;9.154;2023-09-19T04:58:09;1.15;;;0.73;;
25341;SDS011;13298;48.792;9.154;2023-09-19T05:00:35;1.20;;;0.85;;
25341;SDS011;13298;48.792;9.154;2023-09-19T05:03:01;1.90;;;1.00;;
25341;SDS011;13298;48.792;9.154;2023-09-19T05:05:29;3.03;;;1.48;;
25341;SDS011;13298;48.792;9.154;2023-09-19T05:07:54;6.15;;;1.50;;
25341;SDS011;13298;48.792;9.154;2023-09-19T05:10:20;4.03;;;1.10;;
25341;SDS011;13298;48.792;9.154;2023-09-19T05:12:46;0.70;;;0.70;;
25341;SDS011;13298;48.792;9.154;2023-09-19T05:15:13;1.45;;;1.00;;
25341;SDS011;13298;48.792;9.154;2023-09-19T05:17:47;3.10;;;0.98;;
25341;SDS011;13298;48.792;9.154;2023-09-19T05:20:19;2.10;;;1.08;;
25341;SDS011;13298;48.792;9.154;2023-09-19T05:22:59;2.15;;;1.10;;
25341;SDS011;13298;48.792;9.154;2023-09-19T05:25:34;1.00;;;0.80;;
25341;SDS011;13298;48.792;9.154;2023-09-19T05:28:08;1.23;;;0.90;;
25341;SDS011;13298;48.792;9.154;2023-09-19T05:30:36;2.30;;;1.10;;
25341;SDS011;13298;48.792;9.154;2023-09-19T05:33:08;1.95;;;1.10;;
25341;SDS011;13298;48.792;9.154;2023-09-19T05:35:34;2.55;;;1.00;;
25341;SDS011;13298;48.792;9.154;2023-09-19T05:38:02;4.65;;;1.38;;
25341;SDS011;13298;48.792;9.154;2023-09-19T05:40:30;2.03;;;1.30;;
25341;SDS011;13298;48.792;9.154;2023-09-19T05:42:56;1.67;;;1.10;;
25341;SDS011;13298;48.792;9.154;2023-09-19T05:45:22;5.35;;;1.50;;
25341;SDS011;13298;48.792;9.154;2023-09-19T05:47:48;6.35;;;1.73;;
25341;SDS011;13298;48.792;9.154;2023-09-19T05:50:16;5.10;;;1.98;;
25341;SDS011;13298;48.792;9.154;2023-09-19T05:52:43;8.65;;;2.15;;
25341;SDS011;13298;48.792;9.154;2023-09-19T05:55:17;4.90;;;1.75;;
25341;SDS011;13298;48.792;9.154;2023-09-19T05:57:43;6.10;;;2.30;;
25341;SDS011;13298;48.792;9.154;2023-09-19T06:00:15;4.40;;;1.48;;
25341;SDS011;13298;48.792;9.154;2023-09-19T06:02:42;4.80;;;1.60;;
25341;SDS011;13298;48.792;9.154;2023-09-19T06:05:09;2.72;;;1.52;;
25341;SDS011;13298;48.792;9.154;2023-09-19T06:07:36;8.02;;;2.30;;
25341;SDS011;13298;48.792;9.154;2023-09-19T06:10:03;4.65;;;1.70;;
25341;SDS011;13298;48.792;9.154;2023-09-19T06:12:33;4.93;;;1.40;;
25341;SDS011;13298;48.792;9.154;2023-09-19T06:15:04;3.10;;;1.40;;
25341;SDS011;13298;48.792;9.154;2023-09-19T06:17:31;2.55;;;1.30;;
25341;SDS011;13298;48.792;9.154;2023-09-19T06:19:56;2.45;;;1.45;;
25341;SDS011;13298;48.792;9.154;2023-09-19T06:22:23;2.25;;;1.23;;
25341;SDS011;13298;48.792;9.154;2023-09-19T06:24:49;3.35;;;1.40;;
25341;SDS011;13298;48.792;9.154;2023-09-19T06:27:15;4.75;;;1.60;;
25341;SDS011;13298;48.792;9.154;2023-09-19T06:29:41;4.40;;;1.52;;
25341;SDS011;13298;48.792;9.154;2023-09-19T06:32:09;5.28;;;1.50;;
25341;SDS011;13298;48.792;9.154;2023-09-19T06:34:35;2.35;;;1.40;;
25341;SDS011;13298;48.792;9.154;2023-09-19T06:37:03;2.72;;;1.50;;
25341;SDS011;13298;48.792;9.154;2023-09-19T06:39:31;2.92;;;1.80;;
25341;SDS011;13298;48.792;9.154;2023-09-19T06:41:57;3.42;;;1.50;;
25341;SDS011;13298;48.792;9.154;2023-09-19T06:44:23;2.70;;;1.40;;
25341;SDS011;13298;48.792;9.154;2023-09-19T06:46:49;4.57;;;1.55;;
25341;SDS011;13298;48.792;9.154;2023-09-19T06:49:16;3.17;;;1.58;;
25341;SDS011;13298;48.792;9.154;2023-09-19T06:51:43;4.60;;;1.38;;
25341;SDS011;13298;48.792;9.154;2023-09-19T06:54:10;2.60;;;1.70;;
25341;SDS011;13298;48.792;9.154;2023-09-19T06:56:35;2.83;;;1.80;;
25341;SDS011;13298;48.792;9.154;2023-09-19T06:59:01;6.70;;;1.65;;
25341;SDS011;13298;48.792;9.154;2023-09-19T07:01:28;5.05;;;1.98;;
25341;SDS011;13298;48.792;9.154;2023-09-19T07:03:54;4.80;;;1.60;;
25341;SDS011;13298;48.792;9.154;2023-09-19T07:06:20;4.07;;;1.65;;
25341;SDS011;13298;48.792;9.154;2023-09-19T07:08:46;3.20;;;1.13;;
25341;SDS011;13298;48.792;9.154;2023-09-19T07:11:12;2.72;;;1.33;;
25341;SDS011;13298;48.792;9.154;2023-09-19T07:13:38;3.83;;;1.50;;
25341;SDS011;13298;48.792;9.154;2023-09-19T07:16:04;3.58;;;1.40;;
25341;SDS011;13298;48.792;9.154;2023-09-19T07:18:30;3.85;;;1.50;;
25341;SDS011;13298;48.792;9.154;2023-09-19T07:20:57;3.03;;;1.50;;
25341;SDS011;13298;48.792;9.154;2023-09-19T07:23:29;4.40;;;1.77;;
25341;SDS011;13298;48.792;9.154;2023-09-19T07:25:59;3.25;;;1.70;;
25341;SDS011;13298;48.792;9.154;2023-09-19T07:28:30;1.85;;;1.10;;
25341;SDS011;13298;48.792;9.154;2023-09-19T07:30:56;4.15;;;1.95;;
25341;SDS011;13298;48.792;9.154;2023-09-19T07:33:22;7.25;;;1.50;;
25341;SDS011;13298;48.792;9.154;2023-09-19T07:35:51;3.08;;;1.42;;
25341;SDS011;13298;48.792;9.154;2023-09-19T07:38:17;5.20;;;1.33;;
25341;SDS011;13298;48.792;9.154;2023-09-19T07:40:43;3.00;;;1.40;;
25341;SDS011;13298;48.792;9.154;2023-09-19T07:43:09;4.43;;;1.40;;
25341;SDS011;13298;48.792;9.154;2023-09-19T07:45:34;3.55;;;1.50;;
25341;SDS011;13298;48.792;9.154;2023-09-19T07:48:01;4.18;;;1.92;;
25341;SDS011;13298;48.792;9.154;2023-09-19T07:50:29;2.55;;;1.10;;
25341;SDS011;13298;48.792;9.154;2023-09-19T07:52:55;4.57;;;1.50;;
25341;SDS011;13298;48.792;9.154;2023-09-19T07:55:21;3.35;;;1.40;;
25341;SDS011;13298;48.792;9.154;2023-09-19T07:57:54;2.05;;;1.10;;
25341;SDS011;13298;48.792;9.154;2023-09-19T08:00:19;2.10;;;1.40;;
25341;SDS011;13298;48.792;9.154;2023-09-19T08:02:45;2.40;;;1.40;;
25341;SDS011;13298;48.792;9.154;2023-09-19T08:05:12;2.30;;;1.30;;
25341;SDS011;13298;48.792;9.154;2023-09-19T08:07:41;2.45;;;1.15;;
25341;SDS011;13298;48.792;9.154;2023-09-19T08:10:10;3.38;;;1.30;;
25341;SDS011;13298;48.792;9.154;2023-09-19T08:12:40;2.78;;;1.30;;
25341;SDS011;13298;48.792;9.154;2023-09-19T08:17:39;4.57;;;1.38;;
25341;SDS011;13298;48.792;9.154;2023-09-19T08:20:05;2.17;;;1.27;;
25341;SDS011;13298;48.792;9.154;2023-09-19T08:22:32;2.92;;;1.35;;
25341;SDS011;13298;48.792;9.154;2023-09-19T08:24:58;1.73;;;1.15;;
25341;SDS011;13298;48.792;9.154;2023-09-19T08:27:24;2.45;;;1.38;;
25341;SDS011;13298;48.792;9.154;2023-09-19T08:29:53;2.78;;;1.40;;
25341;SDS011;13298;48.792;9.154;2023-09-19T08:32:18;2.22;;;1.20;;
25341;SDS011;13298;48.792;9.154;2023-09-19T08:34:49;3.55;;;1.33;;
25341;SDS011;13298;48.792;9.154;2023-09-19T08:37:15;2.72;;;1.35;;
25341;SDS011;13298;48.792;9.154;2023-09-19T08:39:43;1.63;;;1.10;;
25341;SDS011;13298;48.792;9.154;2023-09-19T08:42:09;1.63;;;1.00;;
25341;SDS011;13298;48.792;9.154;2023-09-19T08:44:37;1.52;;;1.10;;
25341;SDS011;13298;48.792;9.154;2023-09-19T08:47:14;2.92;;;1.20;;
25341;SDS011;13298;48.792;9.154;2023-09-19T08:49:50;1.60;;;0.90;;
25341;SDS011;13298;48.792;9.154;2023-09-19T08:52:27;6.80;;;1.23;;
25341;SDS011;13298;48.792;9.154;2023-09-19T08:55:01;1.80;;;1.10;;
25341;SDS011;13298;48.792;9.154;2023-09-19T08:57:35;2.22;;;1.35;;
25341;SDS011;13298;48.792;9.154;2023-09-19T09:00:06;1.67;;;1.05;;
25341;SDS011;13298;48.792;9.154;2023-09-19T09:02:36;2.78;;;1.20;;
25341;SDS011;13298;48.792;9.154;2023-09-19T09:05:06;1.92;;;1.00;;
25341;SDS011;13298;48.792;9.154;2023-09-19T09:07:34;2.00;;;1.10;;
25341;SDS011;13298;48.792;9.154;2023-09-19T09:10:02;2.22;;;1.15;;
25341;SDS011;13298;48.792;9.154;2023-09-19T09:12:29;1.73;;;1.00;;
25341;SDS011;13298;48.792;9.154;2023-09-19T09:14:55;2.65;;;1.20;;
25341;SDS011;13298;48.792;9.154;2023-09-19T09:17:22;2.00;;;1.27;;
25341;SDS011;13298;48.792;9.154;2023-09-19T09:19:53;2.22;;;1.20;;
25341;SDS011;13298;48.792;9.154;2023-09-19T09:22:19;1.85;;;1.10;;
25341;SDS011;13298;48.792;9.154;2023-09-19T09:27:29;3.58;;;0.90;;
25341;SDS011;13298;48.792;9.154;2023-09-19T09:29:57;4.32;;;1.45;;
25341;SDS011;13298;48.792;9.154;2023-09-19T09:32:27;3.22;;;1.10;;
25341;SDS011;13298;48.792;9.154;2023-09-19T09:35:01;3.28;;;1.10;;
25341;SDS011;13298;48.792;9.154;2023-09-19T09:37:34;3.15;;;1.35;;
25341;SDS011;13298;48.792;9.154;2023-09-19T09:40:03;4.47;;;1.40;;
25341;SDS011;13298;48.792;9.154;2023-09-19T09:42:44;4.25;;;1.40;;
25341;SDS011;13298;48.792;9.154;2023-09-19T09:45:20;2.92;;;1.10;;
25341;SDS011;13298;48.792;9.154;2023-09-19T09:48:00;1.35;;;0.93;;
25341;SDS011;13298;48.792;9.154;2023-09-19T09:50:39;2.33;;;0.90;;
25341;SDS011;13298;48.792;9.154;2023-09-19T09:53:27;3.17;;;1.13;;
25341;SDS011;13298;48.792;9.154;2023-09-19T09:55:58;3.60;;;1.00;;
25341;SDS011;13298;48.792;9.154;2023-09-19T09:58:37;1.75;;;1.10;;
25341;SDS011;13298;48.792;9.154;2023-09-19T10:01:20;2.58;;;1.20;;
25341;SDS011;13298;48.792;9.154;2023-09-19T10:03:51;1.77;;;1.20;;
25341;SDS011;13298;48.792;9.154;2023-09-19T10:06:23;2.08;;;1.20;;
25341;SDS011;13298;48.792;9.154;2023-09-19T10:11:39;4.13;;;1.23;;
25341;SDS011;13298;48.792;9.154;2023-09-19T10:14:11;2.95;;;1.08;;
25341;SDS011;13298;48.792;9.154;2023-09-19T10:16:40;2.38;;;1.20;;
25341;SDS011;13298;48.792;9.154;2023-09-19T10:19:15;1.90;;;0.95;;
25341;SDS011;13298;48.792;9.154;2023-09-19T10:21:55;1.48;;;0.93;;
25341;SDS011;13298;48.792;9.154;2023-09-19T10:24:22;3.22;;;1.55;;
25341;SDS011;13298;48.792;9.154;2023-09-19T10:26:50;4.53;;;1.85;;
25341;SDS011;13298;48.792;9.154;2023-09-19T10:29:16;1.92;;;1.10;;
25341;SDS011;13298;48.792;9.154;2023-09-19T10:31:44;2.40;;;1.25;;
25341;SDS011;13298;48.792;9.154;2023-09-19T10:34:14;3.55;;;1.40;;
25341;SDS011;13298;48.792;9.154;2023-09-19T10:36:40;2.70;;;1.02;;
25341;SDS011;13298;48.792;9.154;2023-09-19T10:39:12;3.80;;;1.35;;
25341;SDS011;13298;48.792;9.154;2023-09-19T10:41:53;1.50;;;1.10;;
25341;SDS011;13298;48.792;9.154;2023-09-19T10:44:24;1.15;;;0.80;;
25341;SDS011;13298;48.792;9.154;2023-09-19T10:46:51;1.90;;;1.20;;
25341;SDS011;13298;48.792;9.154;2023-09-19T10:49:19;3.05;;;1.20;;
25341;SDS011;13298;48.792;9.154;2023-09-19T10:51:46;1.52;;;1.17;;
25341;SDS011;13298;48.792;9.154;2023-09-19T10:54:16;1.40;;;1.08;;
25341;SDS011;13298;48.792;9.154;2023-09-19T10:56:46;2.15;;;1.10;;
25341;SDS011;13298;48.792;9.154;2023-09-19T10:59:16;3.03;;;1.15;;
25341;SDS011;13298;48.792;9.154;2023-09-19T11:01:47;3.25;;;0.98;;
25341;SDS011;13298;48.792;9.154;2023-09-19T11:04:31;1.73;;;0.93;;
25341;SDS011;13298;48.792;9.154;2023-09-19T11:09:47;2.17;;;1.00;;
25341;SDS011;13298;48.792;9.154;2023-09-19T11:14:56;3.72;;;1.40;;
25341;SDS011;13298;48.792;9.154;2023-09-19T11:23:16;1.52;;;1.10;;
25341;SDS011;13298;48.792;9.154;2023-09-19T11:25:41;1.70;;;1.10;;
25341;SDS011;13298;48.792;9.154;2023-09-19T11:30:41;1.05;;;0.85;;
25341;SDS011;13298;48.792;9.154;2023-09-19T11:33:24;3.50;;;1.30;;
25341;SDS011;13298;48.792;9.154;2023-09-19T11:41:36;2.08;;;0.73;;
25341;SDS011;13298;48.792;9.154;2023-09-19T11:46:51;1.85;;;0.88;;
25341;SDS011;13298;48.792;9.154;2023-09-19T11:49:25;1.73;;;0.75;;
25341;SDS011;13298;48.792;9.154;2023-09-19T11:51:56;1.25;;;0.80;;
25341;SDS011;13298;48.792;9.154;2023-09-19T11:54:30;2.67;;;1.02;;
25341;SDS011;13298;48.792;9.154;2023-09-19T11:56:57;2.25;;;0.90;;
25341;SDS011;13298;48.792;9.154;2023-09-19T11:59:25;2.65;;;0.90;;
25341;SDS011;13298;48.792;9.154;2023-09-19T12:02:05;2.50;;;1.58;;
25341;SDS011;13298;48.792;9.154;2023-09-19T12:07:09;1.45;;;0.98;;
25341;SDS011;13298;48.792;9.154;2023-09-19T12:12:20;2.22;;;1.05;;
25341;SDS011;13298;48.792;9.154;2023-09-19T12:14:52;1.20;;;0.85;;
25341;SDS011;13298;48.792;9.154;2023-09-19T12:17:19;1.90;;;0.75;;
25341;SDS011;13298;48.792;9.154;2023-09-19T12:19:55;1.05;;;0.80;;
25341;SDS011;13298;48.792;9.154;2023-09-19T12:22:22;1.10;;;0.80;;
25341;SDS011;13298;48.792;9.154;2023-09-19T12:24:48;3.70;;;1.17;;
25341;SDS011;13298;48.792;9.154;2023-09-19T12:27:15;0.85;;;0.68;;
25341;SDS011;13298;48.792;9.154;2023-09-19T12:29:45;1.17;;;0.70;;
25341;SDS011;13298;48.792;9.154;2023-09-19T12:32:19;1.58;;;0.60;;
25341;SDS011;13298;48.792;9.154;2023-09-19T12:35:05;2.28;;;1.00;;
25341;SDS011;13298;48.792;9.154;2023-09-19T12:37:43;3.22;;;1.15;;
25341;SDS011;13298;48.792;9.154;2023-09-19T12:40:17;2.00;;;1.00;;
25341;SDS011;13298;48.792;9.154;2023-09-19T12:42:50;1.25;;;0.73;;
25341;SDS011;13298;48.792;9.154;2023-09-19T12:45:20;3.75;;;1.08;;
25341;SDS011;13298;48.792;9.154;2023-09-19T12:53:41;2.90;;;1.10;;
25341;SDS011;13298;48.792;9.154;2023-09-19T12:56:12;1.75;;;1.00;;
25341;SDS011;13298;48.792;9.154;2023-09-19T12:58:53;1.38;;;0.90;;
25341;SDS011;13298;48.792;9.154;2023-09-19T13:01:28;3.95;;;1.00;;
25341;SDS011;13298;48.792;9.154;2023-09-19T13:06:58;1.92;;;0.80;;
25341;SDS011;13298;48.792;9.154;2023-09-19T13:09:27;2.05;;;1.00;;
25341;SDS011;13298;48.792;9.154;2023-09-19T13:14:27;2.20;;;0.90;;
25341;SDS011;13298;48.792;9.154;2023-09-19T13:17:03;2.95;;;1.20;;
25341;SDS011;13298;48.792;9.154;2023-09-19T13:19:38;1.98;;;1.20;;
25341;SDS011;13298;48.792;9.154;2023-09-19T13:25:12;1.98;;;0.90;;
25341;SDS011;13298;48.792;9.154;2023-09-19T13:27:43;1.98;;;1.17;;
25341;SDS011;13298;48.792;9.154;2023-09-19T13:30:13;2.88;;;1.00;;
25341;SDS011;13298;48.792;9.154;2023-09-19T13:32:40;2.72;;;1.00;;
25341;SDS011;13298;48.792;9.154;2023-09-19T13:35:07;1.65;;;1.10;;
25341;SDS011;13298;48.792;9.154;2023-09-19T13:37:38;3.00;;;1.13;;
25341;SDS011;13298;48.792;9.154;2023-09-19T13:40:09;2.88;;;1.13;;
25341;SDS011;13298;48.792;9.154;2023-09-19T13:42:36;2.53;;;1.20;;
25341;SDS011;13298;48.792;9.154;2023-09-19T13:45:02;1.52;;;0.85;;
25341;SDS011;13298;48.792;9.154;2023-09-19T13:47:32;1.58;;;0.93;;
25341;SDS011;13298;48.792;9.154;2023-09-19T13:49:59;3.08;;;1.10;;
25341;SDS011;13298;48.792;9.154;2023-09-19T13:52:29;2.72;;;0.90;;
25341;SDS011;13298;48.792;9.154;2023-09-19T13:54:56;1.80;;;1.00;;
25341;SDS011;13298;48.792;9.154;2023-09-19T13:57:25;2.53;;;1.40;;
25341;SDS011;13298;48.792;9.154;2023-09-19T13:59:51;2.65;;;1.10;;
25341;SDS011;13298;48.792;9.154;2023-09-19T14:02:21;1.52;;;0.95;;
25341;SDS011;13298;48.792;9.154;2023-09-19T14:04:50;2.25;;;1.20;;
25341;SDS011;13298;48.792;9.154;2023-09-19T14:07:20;4.30;;;1.10;;
25341;SDS011;13298;48.792;9.154;2023-09-19T14:09:46;2.25;;;0.88;;
25341;SDS011;13298;48.792;9.154;2023-09-19T14:12:12;5.72;;;1.10;;
25341;SDS011;13298;48.792;9.154;2023-09-19T14:14:39;2.90;;;1.20;;
25341;SDS011;13298;48.792;9.154;2023-09-19T14:17:05;1.27;;;0.88;;
25341;SDS011;13298;48.792;9.154;2023-09-19T14:19:32;2.25;;;1.10;;
25341;SDS011;13298;48.792;9.154;2023-09-19T14:21:58;1.48;;;1.08;;
25341;SDS011;13298;48.792;9.154;2023-09-19T14:24:25;2.22;;;1.02;;
25341;SDS011;13298;48.792;9.154;2023-09-19T14:26:51;1.88;;;1.00;;
25341;SDS011;13298;48.792;9.154;2023-09-19T14:29:16;2.10;;;0.90;;
25341;SDS011;13298;48.792;9.154;2023-09-19T14:31:42;0.98;;;0.80;;
25341;SDS011;13298;48.792;9.154;2023-09-19T14:34:08;1.45;;;1.08;;
25341;SDS011;13298;48.792;9.154;2023-09-19T14:36:35;2.75;;;1.15;;
25341;SDS011;13298;48.792;9.154;2023-09-19T14:39:01;2.53;;;1.20;;
25341;SDS011;13298;48.792;9.154;2023-09-19T14:41:28;1.52;;;0.93;;
25341;SDS011;13298;48.792;9.154;2023-09-19T14:43:54;2.38;;;1.10;;
25341;SDS011;13298;48.792;9.154;2023-09-19T14:46:23;4.03;;;1.15;;
25341;SDS011;13298;48.792;9.154;2023-09-19T14:48:50;1.55;;;1.00;;
25341;SDS011;13298;48.792;9.154;2023-09-19T14:51:17;2.05;;;1.23;;
25341;SDS011;13298;48.792;9.154;2023-09-19T14:53:44;1.80;;;1.10;;
25341;SDS011;13298;48.792;9.154;2023-09-19T14:56:11;1.60;;;1.05;;
25341;SDS011;13298;48.792;9.154;2023-09-19T14:58:38;2.85;;;1.10;;
25341;SDS011;13298;48.792;9.154;2023-09-19T15:03:33;2.33;;;1.02;;
25341;SDS011;13298;48.792;9.154;2023-09-19T15:06:03;1.83;;;1.10;;
25341;SDS011;13298;48.792;9.154;2023-09-19T15:08:32;2.10;;;1.00;;
25341;SDS011;13298;48.792;9.154;2023-09-19T15:11:00;1.65;;;1.00;;
25341;SDS011;13298;48.792;9.154;2023-09-19T15:13:30;1.52;;;0.93;;
25341;SDS011;13298;48.792;9.154;2023-09-19T15:16:00;1.50;;;1.00;;
25341;SDS011;13298;48.792;9.154;2023-09-19T15:18:28;1.55;;;1.25;;
25341;SDS011;13298;48.792;9.154;2023-09-19T15:21:01;2.15;;;1.10;;
25341;SDS011;13298;48.792;9.154;2023-09-19T15:23:28;3.83;;;1.20;;
25341;SDS011;13298;48.792;9.154;2023-09-19T15:25:59;1.55;;;1.02;;
25341;SDS011;13298;48.792;9.154;2023-09-19T15:28:26;1.02;;;0.90;;
25341;SDS011;13298;48.792;9.154;2023-09-19T15:31:00;2.65;;;0.98;;
25341;SDS011;13298;48.792;9.154;2023-09-19T15:33:28;1.42;;;0.80;;
25341;SDS011;13298;48.792;9.154;2023-09-19T15:36:05;1.45;;;0.90;;
25341;SDS011;13298;48.792;9.154;2023-09-19T15:38:56;1.00;;;0.85;;
25341;SDS011;13298;48.792;9.154;2023-09-19T15:41:28;1.25;;;0.90;;
25341;SDS011;13298;48.792;9.154;2023-09-19T15:44:04;1.15;;;0.80;;
25341;SDS011;13298;48.792;9.154;2023-09-19T15:46:36;1.25;;;0.90;;
25341;SDS011;13298;48.792;9.154;2023-09-19T15:49:02;1.52;;;0.90;;
25341;SDS011;13298;48.792;9.154;2023-09-19T15:51:28;1.05;;;0.80;;
25341;SDS011;13298;48.792;9.154;2023-09-19T15:53:54;1.05;;;0.80;;
25341;SDS011;13298;48.792;9.154;2023-09-19T15:56:21;0.90;;;0.80;;
25341;SDS011;13298;48.792;9.154;2023-09-19T15:58:49;3.13;;;0.80;;
25341;SDS011;13298;48.792;9.154;2023-09-19T16:01:18;1.42;;;0.90;;
25341;SDS011;13298;48.792;9.154;2023-09-19T16:03:46;2.33;;;1.02;;
25341;SDS011;13298;48.792;9.154;2023-09-19T16:06:17;0.85;;;0.60;;
25341;SDS011;13298;48.792;9.154;2023-09-19T16:08:46;1.58;;;1.08;;
25341;SDS011;13298;48.792;9.154;2023-09-19T16:11:13;0.80;;;0.70;;